Beautiful Rena — C6YE7 — position and weather

sailwx.info

Track history (hours):
 
Tides and Currents Weather Stations Pressure Air Temp Water Temp Dewpoint Dewpoint Depression Visibility Wind Speed Wind Dir Waves Ship Positions

Beautiful Rena

Last reported at 2015-Feb-21 19:03 UTC. Time now 2015-Mar-28 01:50 UTC.
Position N 08°12' W 014°41'.
Warning: this ship's position is 34 days out of date.

Length 190 m; draft 10.7 m.

Type: Cargo ship. MMSI: 311030200.

Date/timePositionNaut miles runAvg speedWind from/ knotsBaromVisibWave heightAir tempDewpointWater temp
2015-Feb-21 19:03N 08°12' W 014°41'711.8
2015-Feb-21 18:30N 08°16' W 014°46'1111.8
2015-Feb-21 17:34N 08°23' W 014°55'1211.9
2015-Feb-21 16:33N 08°29' W 015°05'  
2015-Feb-14 20:33N 35°58' W 005°35'1010.0
2015-Feb-14 19:33N 36°01' W 005°24'8 7.4
2015-Feb-14 18:28N 36°08' W 005°18'0 0.0
2015-Feb-14 17:22N 36°08' W 005°18'0 0.0
2015-Feb-14 16:31N 36°08' W 005°18'0 0.0
2015-Feb-14 15:22N 36°08' W 005°18'0 0.0
2015-Feb-14 14:31N 36°08' W 005°18'0 0.1
2015-Feb-14 13:31N 36°08' W 005°18'2 1.7
2015-Feb-14 12:33N 36°06' W 005°18'5 5.1
2015-Feb-14 11:33N 36°05' W 005°25'0 0.0
2015-Feb-14 10:33N 36°05' W 005°24'0 0.0
2015-Feb-14 09:33N 36°05' W 005°24'0 0.1
2015-Feb-14 08:27N 36°05' W 005°24'0 0.0
2015-Feb-14 07:30N 36°05' W 005°24'0 0.1
2015-Feb-14 06:15N 36°05' W 005°25'0 0.1
2015-Feb-14 05:30N 36°05' W 005°25'0 0.0
2015-Feb-14 04:33N 36°05' W 005°25'0 0.0
2015-Feb-14 03:18N 36°05' W 005°25'0 0.1
2015-Feb-14 02:33N 36°05' W 005°25'0 0.1
2015-Feb-14 01:24N 36°05' W 005°24'0 0.1
2015-Feb-14 00:33N 36°05' W 005°25'0 0.0
2015-Feb-13 23:27N 36°05' W 005°25'0 0.0
2015-Feb-13 22:33N 36°05' W 005°25'0 0.0
2015-Feb-13 21:33N 36°05' W 005°25'0 0.0
2015-Feb-13 20:30N 36°05' W 005°25'0 0.1
2015-Feb-13 19:18N 36°05' W 005°24'0 0.1
2015-Feb-13 18:33N 36°05' W 005°25'5 4.8
2015-Feb-13 17:33N 36°05' W 005°19'1312.7
2015-Feb-13 16:33N 36°10' W 005°04'11 1.0
2015-Feb-13 06:18N 36°07' W 005°16'1 0.6
2015-Feb-13 05:28N 36°07' W 005°17'1 1.1
2015-Feb-13 04:22N 36°08' W 005°16'1 1.0
2015-Feb-13 03:31N 36°09' W 005°15'1 0.9
2015-Feb-13 02:19N 36°10' W 005°15'1 0.5
2015-Feb-12 23:25N 36°11' W 005°16'1 0.4
2015-Feb-12 21:16N 36°10' W 005°16'1 1.2
2015-Feb-12 20:33N 36°09' W 005°15'1 0.6
2015-Feb-12 19:29N 36°09' W 005°15'1 0.8
2015-Feb-12 18:33N 36°09' W 005°14'2 1.7
2015-Feb-12 17:33N 36°07' W 005°15'3 3.0
2015-Feb-12 16:33N 36°05' W 005°17'2 1.7
2015-Feb-12 15:33N 36°05' W 005°15'2 1.7
2015-Feb-12 14:33N 36°06' W 005°13'2 1.5
2015-Feb-12 13:33N 36°07' W 005°12'1 1.2
2015-Feb-12 12:33N 36°08' W 005°11'1 1.2
2015-Feb-12 11:33N 36°09' W 005°10'2 0.6
2015-Feb-12 08:25N 36°10' W 005°08'  
Track history (hours):
 
Tides and Currents Weather Stations Pressure Air Temp Water Temp Dewpoint Dewpoint Depression Visibility Wind Speed Wind Dir Waves Ship Positions

Beautiful Rena

Last reported at 2015-Feb-21 19:03 UTC. Time now 2015-Mar-28 01:50 UTC.
Position N 08°12' W 014°41'.
Warning: this ship's position is 34 days out of date.

Length 190 m; draft 10.7 m.

Type: Cargo ship. MMSI: 311030200.

Date/timePositionNaut miles runAvg speedWind from/ knotsBaromVisibWave heightAir tempDewpointWater temp
2015-Feb-21 19:03N 08°12' W 014°41'711.8
2015-Feb-21 18:30N 08°16' W 014°46'1111.8
2015-Feb-21 17:34N 08°23' W 014°55'1211.9
2015-Feb-21 16:33N 08°29' W 015°05'  
2015-Feb-14 20:33N 35°58' W 005°35'1010.0
2015-Feb-14 19:33N 36°01' W 005°24'8 7.4
2015-Feb-14 18:28N 36°08' W 005°18'0 0.0
2015-Feb-14 17:22N 36°08' W 005°18'0 0.0
2015-Feb-14 16:31N 36°08' W 005°18'0 0.0
2015-Feb-14 15:22N 36°08' W 005°18'0 0.0
2015-Feb-14 14:31N 36°08' W 005°18'0 0.1
2015-Feb-14 13:31N 36°08' W 005°18'2 1.7
2015-Feb-14 12:33N 36°06' W 005°18'5 5.1
2015-Feb-14 11:33N 36°05' W 005°25'0 0.0
2015-Feb-14 10:33N 36°05' W 005°24'0 0.0
2015-Feb-14 09:33N 36°05' W 005°24'0 0.1
2015-Feb-14 08:27N 36°05' W 005°24'0 0.0
2015-Feb-14 07:30N 36°05' W 005°24'0 0.1
2015-Feb-14 06:15N 36°05' W 005°25'0 0.1
2015-Feb-14 05:30N 36°05' W 005°25'0 0.0
2015-Feb-14 04:33N 36°05' W 005°25'0 0.0
2015-Feb-14 03:18N 36°05' W 005°25'0 0.1
2015-Feb-14 02:33N 36°05' W 005°25'0 0.1
2015-Feb-14 01:24N 36°05' W 005°24'0 0.1
2015-Feb-14 00:33N 36°05' W 005°25'0 0.0
2015-Feb-13 23:27N 36°05' W 005°25'0 0.0
2015-Feb-13 22:33N 36°05' W 005°25'0 0.0
2015-Feb-13 21:33N 36°05' W 005°25'0 0.0
2015-Feb-13 20:30N 36°05' W 005°25'0 0.1
2015-Feb-13 19:18N 36°05' W 005°24'0 0.1
2015-Feb-13 18:33N 36°05' W 005°25'5 4.8
2015-Feb-13 17:33N 36°05' W 005°19'1312.7
2015-Feb-13 16:33N 36°10' W 005°04'11 1.0
2015-Feb-13 06:18N 36°07' W 005°16'1 0.6
2015-Feb-13 05:28N 36°07' W 005°17'1 1.1
2015-Feb-13 04:22N 36°08' W 005°16'1 1.0
2015-Feb-13 03:31N 36°09' W 005°15'1 0.9
2015-Feb-13 02:19N 36°10' W 005°15'1 0.5
2015-Feb-12 23:25N 36°11' W 005°16'1 0.4
2015-Feb-12 21:16N 36°10' W 005°16'1 1.2
2015-Feb-12 20:33N 36°09' W 005°15'1 0.6
2015-Feb-12 19:29N 36°09' W 005°15'1 0.8
2015-Feb-12 18:33N 36°09' W 005°14'2 1.7
2015-Feb-12 17:33N 36°07' W 005°15'3 3.0
2015-Feb-12 16:33N 36°05' W 005°17'2 1.7
2015-Feb-12 15:33N 36°05' W 005°15'2 1.7
2015-Feb-12 14:33N 36°06' W 005°13'2 1.5
2015-Feb-12 13:33N 36°07' W 005°12'1 1.2
2015-Feb-12 12:33N 36°08' W 005°11'1 1.2
2015-Feb-12 11:33N 36°09' W 005°10'2 0.6
2015-Feb-12 08:25N 36°10' W 005°08'  

Dump ship's entire track history